Old Union, Mississippi
Current Conditions -  °F | °C
As of 6:53 PM on Wednesday 26 Nov 2014 (Local Time) from KTUP Reporting Station
Few Clouds Few Clouds  
Wind Chill:   Ceiling: Unl
Heat Index:   Visibility: 10mi
Dew Point: -1°   Wind: 14mph
Humidity: 50%   Direction: 310°NW
Pressure: 30.13"   Gusts: NA
Location:  34.1202°N, 88.7439°W
Report Text: KTUP 270053Z 31012KT 10SM FEW080 09/M01 A3013 RMK AO2 SLP205 T00941006 $
Loading
Personal Weather Stations






























Interactive Weather Map New forecast layout! Learn more

10-Day Weather Forecast

Advertisements
Track Severe Weather on mobile